createdAt,value
2019-02-11T00:00:05.890Z,-464.09
2019-02-11T00:01:05.966Z,-462.24
2019-02-11T00:02:06.206Z,-460.50
2019-02-11T00:03:06.425Z,-458.24
2019-02-11T00:04:06.649Z,-460.48
2019-02-11T00:05:07.113Z,-461.01
2019-02-11T00:06:07.064Z,-458.52
2019-02-11T00:07:07.274Z,-457.15
2019-02-11T00:08:07.560Z,-456.86
2019-02-11T00:09:07.704Z,-460.15
2019-02-11T00:10:07.946Z,-458.62
2019-02-11T00:11:08.138Z,-462.93
2019-02-11T00:12:08.353Z,-465.66
2019-02-11T00:13:10.665Z,-465.90
2019-02-11T00:14:08.780Z,-465.94
2019-02-11T00:15:09.036Z,-464.58
2019-02-11T00:16:09.285Z,-462.16
2019-02-11T00:17:09.445Z,-464.69
2019-02-11T00:18:09.664Z,-464.23
2019-02-11T00:19:11.043Z,-464.46
2019-02-11T00:20:10.155Z,-463.82
2019-02-11T00:21:10.340Z,-462.33
2019-02-11T00:22:10.557Z,-467.07
2019-02-11T00:23:10.788Z,-464.49
2019-02-11T00:24:10.986Z,-463.31
2019-02-11T00:25:11.343Z,-462.23
2019-02-11T00:26:11.415Z,-463.89
2019-02-11T00:27:11.632Z,-462.46
2019-02-11T00:28:11.864Z,-461.79
2019-02-11T00:29:12.047Z,-464.25
2019-02-11T00:30:12.304Z,-462.77
2019-02-11T00:31:12.501Z,-463.70
2019-02-11T00:32:12.697Z,-463.00
2019-02-11T00:33:13.068Z,-464.74
2019-02-11T00:34:13.136Z,-464.00
2019-02-11T00:35:13.421Z,-458.92
2019-02-11T00:36:13.578Z,-463.18
2019-02-11T00:37:13.804Z,-461.32
2019-02-11T00:38:14.040Z,-464.32
2019-02-11T00:39:14.216Z,-462.00
2019-02-11T00:40:14.456Z,-462.21
2019-02-11T00:41:14.767Z,-464.45
2019-02-11T00:42:14.862Z,-463.85
2019-02-11T00:43:19.146Z,-461.81
2019-02-11T00:44:15.298Z,-463.99
2019-02-11T00:45:15.527Z,-463.81
2019-02-11T00:46:15.731Z,-464.01
2019-02-11T00:47:15.944Z,-464.48
2019-02-11T00:48:16.176Z,-463.99
2019-02-11T00:49:16.417Z,-463.87
2019-02-11T00:50:16.596Z,-464.70
2019-02-11T00:51:16.774Z,-466.37
2019-02-11T00:52:17.003Z,-462.16
2019-02-11T00:53:17.244Z,-464.11
2019-02-11T00:54:17.449Z,-466.30
2019-02-11T00:55:17.699Z,-466.72
2019-02-11T00:56:17.850Z,-470.53
2019-02-11T00:57:18.126Z,-466.40
2019-02-11T00:58:18.386Z,-464.12
2019-02-11T00:59:18.522Z,-465.22
2019-02-11T01:00:18.770Z,-466.46
2019-02-11T01:01:18.940Z,-466.21
2019-02-11T01:02:19.171Z,-463.24
2019-02-11T01:03:19.414Z,-464.45
2019-02-11T01:04:19.613Z,-465.23
2019-02-11T01:05:19.878Z,-464.65
2019-02-11T01:06:20.176Z,-463.03
2019-02-11T01:07:20.266Z,-463.93
2019-02-11T01:08:20.493Z,-466.79
2019-02-11T01:09:20.691Z,-466.06
2019-02-11T01:10:20.915Z,-466.23
2019-02-11T01:11:21.126Z,-466.77
2019-02-11T01:12:21.325Z,-465.48
2019-02-11T01:13:27.569Z,-464.55
2019-02-11T01:14:22.886Z,-465.03
2019-02-11T01:15:21.988Z,-463.06
2019-02-11T01:16:22.215Z,-461.22
2019-02-11T01:17:22.415Z,-465.75
2019-02-11T01:18:22.661Z,-463.24
2019-02-11T01:19:22.860Z,-463.14
2019-02-11T01:20:23.084Z,-464.74
2019-02-11T01:21:23.308Z,-465.67
2019-02-11T01:22:23.562Z,-462.96
2019-02-11T01:23:23.729Z,-465.83
2019-02-11T01:24:23.954Z,-465.76
2019-02-11T01:25:24.168Z,-464.68
2019-02-11T01:26:24.390Z,-465.22
2019-02-11T01:27:24.578Z,-465.34
2019-02-11T01:28:24.817Z,-465.32
2019-02-11T01:29:25.008Z,-465.78
2019-02-11T01:30:25.440Z,-466.57
2019-02-11T01:31:25.520Z,-467.48
2019-02-11T01:32:25.695Z,-465.04
2019-02-11T01:33:25.936Z,-465.47
2019-02-11T01:34:26.120Z,-464.82
2019-02-11T01:35:26.356Z,-463.23
2019-02-11T01:36:26.584Z,-463.50
2019-02-11T01:37:26.772Z,-460.90
2019-02-11T01:38:27.040Z,-465.44
2019-02-11T01:39:27.323Z,-463.01
2019-02-11T01:40:27.437Z,-465.14
2019-02-11T01:41:27.664Z,-464.39
2019-02-11T01:42:28.086Z,-463.55
2019-02-11T01:43:35.656Z,-466.81
2019-02-11T01:44:29.274Z,-463.70
2019-02-11T01:45:28.523Z,-462.51
2019-02-11T01:46:28.745Z,-466.06
2019-02-11T01:47:29.074Z,-460.85
2019-02-11T01:48:29.179Z,-465.39
2019-02-11T01:49:29.363Z,-464.87
2019-02-11T01:50:29.624Z,-463.22
2019-02-11T01:51:29.826Z,-462.96
2019-02-11T01:52:30.019Z,-465.01
2019-02-11T01:53:30.257Z,-460.74
2019-02-11T01:54:30.455Z,-462.20
2019-02-11T01:55:30.774Z,-463.07
2019-02-11T01:56:30.887Z,-463.22
2019-02-11T01:57:31.092Z,-461.85
2019-02-11T01:58:31.324Z,-459.06
2019-02-11T01:59:31.524Z,-461.36
2019-02-11T02:00:31.731Z,-462.59
2019-02-11T02:01:31.972Z,-461.56
2019-02-11T02:02:32.183Z,-459.64
2019-02-11T02:03:32.447Z,-459.50
2019-02-11T02:04:32.588Z,-458.49
2019-02-11T02:05:32.837Z,-459.62
2019-02-11T02:06:33.062Z,-458.32
2019-02-11T02:07:33.246Z,-458.38
2019-02-11T02:08:33.486Z,-459.79
2019-02-11T02:09:33.687Z,-458.23
2019-02-11T02:10:33.901Z,-458.06
2019-02-11T02:11:34.192Z,-459.50
2019-02-11T02:12:34.359Z,-460.80
2019-02-11T02:13:34.546Z,-458.37
2019-02-11T02:14:34.761Z,-458.68
2019-02-11T02:15:34.988Z,-456.82
2019-02-11T02:16:35.195Z,-459.20
2019-02-11T02:17:35.408Z,-458.43
2019-02-11T02:18:35.640Z,-460.69
2019-02-11T02:19:35.874Z,-456.57
2019-02-11T02:20:36.263Z,-456.94
2019-02-11T02:21:36.343Z,-455.56
2019-02-11T02:22:36.556Z,-458.11
2019-02-11T02:23:36.767Z,-457.73
2019-02-11T02:24:37.029Z,-455.44
2019-02-11T02:25:37.223Z,-456.45
2019-02-11T02:26:37.457Z,-455.27
2019-02-11T02:27:37.631Z,-452.03
2019-02-11T02:28:37.980Z,-451.15
2019-02-11T02:29:38.093Z,-452.27
2019-02-11T02:30:38.296Z,-451.31
2019-02-11T02:31:38.522Z,-452.22
2019-02-11T02:32:38.709Z,-449.45
2019-02-11T02:33:38.925Z,-447.41
2019-02-11T02:34:39.187Z,-447.85
2019-02-11T02:35:39.403Z,-448.77
2019-02-11T02:36:39.639Z,-450.13
2019-02-11T02:37:39.788Z,-447.29
2019-02-11T02:38:40.002Z,-449.78
2019-02-11T02:39:40.277Z,-451.55
2019-02-11T02:40:40.439Z,-457.18
2019-02-11T02:41:40.740Z,-453.25
2019-02-11T02:42:40.863Z,-455.67
2019-02-11T02:43:41.090Z,-457.29
2019-02-11T02:44:41.414Z,-456.36
2019-02-11T02:45:41.557Z,-456.40
2019-02-11T02:46:41.766Z,-457.18
2019-02-11T02:47:41.957Z,-457.92
2019-02-11T02:48:42.181Z,-459.03
2019-02-11T02:49:42.424Z,-458.14
2019-02-11T02:50:42.610Z,-459.09
2019-02-11T02:51:42.846Z,-460.76
2019-02-11T02:52:43.056Z,-460.59
2019-02-11T02:53:43.419Z,-458.68
2019-02-11T02:54:43.516Z,-459.39
2019-02-11T02:55:43.702Z,-461.76
2019-02-11T02:56:43.935Z,-457.64
2019-02-11T02:57:44.143Z,-432.04
2019-02-11T02:58:44.348Z,-433.42
2019-02-11T02:59:44.573Z,-434.40
2019-02-11T03:00:44.797Z,-433.75
2019-02-11T03:01:45.348Z,-433.14
2019-02-11T03:02:45.197Z,-432.69
2019-02-11T03:03:45.416Z,-432.43
2019-02-11T03:04:45.632Z,-433.17
2019-02-11T03:05:45.870Z,-433.26
2019-02-11T03:06:46.079Z,-434.79
2019-02-11T03:07:46.275Z,-433.21
2019-02-11T03:08:46.491Z,-433.05
2019-02-11T03:09:46.817Z,-431.40
2019-02-11T03:10:46.919Z,-432.74
2019-02-11T03:11:47.138Z,-434.04
2019-02-11T03:12:47.336Z,-432.79
2019-02-11T03:13:47.553Z,-432.04
2019-02-11T03:14:47.782Z,-433.22
2019-02-11T03:15:48.003Z,-431.41
2019-02-11T03:16:48.198Z,-432.86
2019-02-11T03:17:48.465Z,-434.20
2019-02-11T03:18:48.623Z,-433.23
2019-02-11T03:19:49.065Z,-430.09
2019-02-11T03:20:49.041Z,-429.96
2019-02-11T03:21:49.263Z,-431.84
2019-02-11T03:22:49.475Z,-431.92
2019-02-11T03:23:49.730Z,-432.20
2019-02-11T03:24:49.942Z,-428.57
2019-02-11T03:25:50.157Z,-430.39
2019-02-11T03:26:50.482Z,-431.10
2019-02-11T03:27:50.665Z,-431.85
2019-02-11T03:28:50.920Z,-431.40
2019-02-11T03:29:51.148Z,-429.31
2019-02-11T03:30:51.365Z,-432.63
2019-02-11T03:31:51.610Z,-429.37
2019-02-11T03:32:51.786Z,-429.08
2019-02-11T03:33:52.057Z,-433.96
2019-02-11T03:34:52.390Z,-430.82
2019-02-11T03:35:52.492Z,-432.41
2019-02-11T03:36:52.692Z,-431.12
2019-02-11T03:37:52.929Z,-429.39
2019-02-11T03:38:53.192Z,-431.02
2019-02-11T03:39:53.407Z,-430.47
2019-02-11T03:40:53.612Z,-430.17
2019-02-11T03:41:53.835Z,-432.80
2019-02-11T03:42:54.142Z,-430.41
2019-02-11T03:43:54.273Z,-430.62
2019-02-11T03:44:54.507Z,-429.62
2019-02-11T03:45:54.712Z,-432.04
2019-02-11T03:46:54.942Z,-431.40
2019-02-11T03:47:55.172Z,-430.64
2019-02-11T03:48:55.367Z,-432.13
2019-02-11T03:49:55.616Z,-432.15
2019-02-11T03:50:55.892Z,-431.61
2019-02-11T03:51:56.069Z,-430.01
2019-02-11T03:52:56.286Z,-430.17
2019-02-11T03:53:56.514Z,-430.91
2019-02-11T03:54:56.713Z,-431.26
2019-02-11T03:55:57.012Z,-431.38
2019-02-11T03:56:57.186Z,-431.02
2019-02-11T03:57:57.412Z,-428.47
2019-02-11T03:58:57.647Z,-431.79
2019-02-11T03:59:57.842Z,-432.20
2019-02-11T04:00:58.025Z,-429.83
2019-02-11T04:01:58.275Z,-429.08
2019-02-11T04:02:58.444Z,-427.38
2019-02-11T04:03:58.660Z,-430.28
2019-02-11T04:04:58.882Z,-430.34
2019-02-11T04:05:59.099Z,-429.47
2019-02-11T04:06:59.553Z,-431.84
2019-02-11T04:07:59.733Z,-431.97
2019-02-11T04:08:59.809Z,-428.96
2019-02-11T04:10:00.038Z,-428.88
2019-02-11T04:11:00.258Z,-430.54
2019-02-11T04:12:00.487Z,-430.79
2019-02-11T04:13:00.715Z,-430.39
2019-02-11T04:14:00.918Z,-431.40
2019-02-11T04:15:01.159Z,-430.65
2019-02-11T04:16:01.438Z,-430.90
2019-02-11T04:17:01.588Z,-431.12
2019-02-11T04:18:01.825Z,-430.72
2019-02-11T04:19:02.025Z,-428.78
2019-02-11T04:20:02.259Z,-430.11
2019-02-11T04:21:02.450Z,-431.45
2019-02-11T04:22:02.702Z,-431.88
2019-02-11T04:23:02.932Z,-428.36
2019-02-11T04:24:03.190Z,-431.83
2019-02-11T04:25:03.350Z,-428.86
2019-02-11T04:26:03.551Z,-431.17
2019-02-11T04:27:03.784Z,-431.27
2019-02-11T04:28:04.027Z,-430.05
2019-02-11T04:29:04.234Z,-432.49
2019-02-11T04:30:04.474Z,-431.72
2019-02-11T04:31:04.684Z,-431.98
2019-02-11T04:32:04.930Z,-432.76
2019-02-11T04:33:05.117Z,-432.27
2019-02-11T04:34:05.357Z,-433.59
2019-02-11T04:35:05.573Z,-432.56
2019-02-11T04:36:05.798Z,-431.82
2019-02-11T04:37:06.046Z,-435.22
2019-02-11T04:38:06.269Z,-431.77
2019-02-11T04:39:06.453Z,-433.99
2019-02-11T04:40:06.708Z,-435.44
2019-02-11T04:41:07.004Z,-433.27
2019-02-11T04:42:07.158Z,-431.20
2019-02-11T04:43:07.381Z,-434.36
2019-02-11T04:44:07.599Z,-431.43
2019-02-11T04:45:07.847Z,-434.08
2019-02-11T04:46:08.068Z,-432.81
2019-02-11T04:47:08.287Z,-433.91
2019-02-11T04:48:08.522Z,-434.27
2019-02-11T04:49:08.793Z,-434.56
2019-02-11T04:50:08.954Z,-434.96
2019-02-11T04:51:09.179Z,-433.88
2019-02-11T04:52:09.405Z,-431.51
2019-02-11T04:53:09.652Z,-434.06
2019-02-11T04:54:09.824Z,-434.74
2019-02-11T04:55:10.062Z,-432.88
2019-02-11T04:56:10.301Z,-434.18
2019-02-11T04:57:10.577Z,-432.59
2019-02-11T04:58:10.734Z,-434.39
2019-02-11T04:59:10.935Z,-434.10
2019-02-11T05:00:11.158Z,-434.22
2019-02-11T05:01:11.414Z,-434.11
2019-02-11T05:02:11.859Z,-434.42
2019-02-11T05:03:11.860Z,-432.29
2019-02-11T05:04:12.071Z,-433.14
2019-02-11T05:05:12.357Z,-432.49
2019-02-11T05:06:12.490Z,-434.60
2019-02-11T05:07:12.743Z,-433.19
2019-02-11T05:08:12.981Z,-432.39
2019-02-11T05:09:13.165Z,-436.31
2019-02-11T05:10:13.380Z,-434.20
2019-02-11T05:11:13.637Z,-433.87
2019-02-11T05:12:13.820Z,-433.75
2019-02-11T05:13:14.134Z,-433.95
2019-02-11T05:14:14.320Z,-435.58
2019-02-11T05:15:14.511Z,-432.37
2019-02-11T05:16:14.747Z,-434.55
2019-02-11T05:17:14.952Z,-434.61
2019-02-11T05:18:16.860Z,-437.90
2019-02-11T05:19:15.467Z,-436.22
2019-02-11T05:20:15.636Z,-436.83
2019-02-11T05:21:15.889Z,-436.79
2019-02-11T05:22:16.203Z,-434.71
2019-02-11T05:23:16.316Z,-429.71
2019-02-11T05:24:16.519Z,-430.95
2019-02-11T05:25:16.744Z,-433.21
2019-02-11T05:26:16.980Z,-433.65
2019-02-11T05:27:17.200Z,-434.25
2019-02-11T05:28:17.405Z,-436.46
2019-02-11T05:29:17.630Z,-433.45
2019-02-11T05:30:17.970Z,-434.60
2019-02-11T05:31:18.096Z,-431.88
2019-02-11T05:32:18.314Z,-431.22
2019-02-11T05:33:18.568Z,-434.25
2019-02-11T05:34:18.749Z,-433.02
2019-02-11T05:35:18.970Z,-433.90
2019-02-11T05:36:19.208Z,-433.38
2019-02-11T05:37:19.441Z,-434.69
2019-02-11T05:38:19.721Z,-432.69
2019-02-11T05:39:19.836Z,-432.20
2019-02-11T05:40:20.067Z,-435.16
2019-02-11T05:41:20.303Z,-431.17
2019-02-11T05:42:20.509Z,-434.17
2019-02-11T05:43:20.748Z,-435.84
2019-02-11T05:44:20.969Z,-433.94
2019-02-11T05:45:21.171Z,-435.00
2019-02-11T05:46:21.482Z,-434.44
2019-02-11T05:47:21.635Z,-430.91
2019-02-11T05:48:21.862Z,-431.00
2019-02-11T05:49:22.106Z,-429.14
2019-02-11T05:50:22.331Z,-430.57
2019-02-11T05:51:22.548Z,-428.48
2019-02-11T05:52:22.771Z,-428.00
2019-02-11T05:53:22.992Z,-429.46
2019-02-11T05:54:23.247Z,-430.29
2019-02-11T05:55:23.906Z,-431.66
2019-02-11T05:56:23.659Z,-433.15
2019-02-11T05:57:23.882Z,-431.61
2019-02-11T05:58:24.101Z,-432.29
2019-02-11T05:59:24.342Z,-432.51
2019-02-11T06:00:24.550Z,-432.68
2019-02-11T06:01:24.787Z,-430.30
2019-02-11T06:02:24.987Z,-429.83
2019-02-11T06:03:25.335Z,-428.72
2019-02-11T06:04:25.464Z,-430.29
2019-02-11T06:05:25.655Z,-430.57
2019-02-11T06:06:25.896Z,-434.32
2019-02-11T06:07:26.098Z,-431.84
2019-02-11T06:08:26.332Z,-433.33
2019-02-11T06:09:26.572Z,-432.59
2019-02-11T06:10:26.781Z,-434.74
2019-02-11T06:11:27.086Z,-433.33
2019-02-11T06:12:27.205Z,-433.27
2019-02-11T06:13:27.431Z,-434.09
2019-02-11T06:14:27.672Z,-432.90
2019-02-11T06:15:27.881Z,-429.36
2019-02-11T06:16:28.115Z,-433.71
2019-02-11T06:17:28.335Z,-431.75
2019-02-11T06:18:28.526Z,-431.10
2019-02-11T06:19:28.839Z,-432.09
2019-02-11T06:20:28.988Z,-431.75
2019-02-11T06:21:29.232Z,-430.92
2019-02-11T06:22:29.440Z,-430.76
2019-02-11T06:23:29.765Z,-428.77
2019-02-11T06:24:29.877Z,-431.67
2019-02-11T06:25:30.094Z,-429.29
2019-02-11T06:26:30.341Z,-430.42
2019-02-11T06:27:30.597Z,-432.46
2019-02-11T06:28:30.791Z,-429.50
2019-02-11T06:29:31.045Z,-430.79
2019-02-11T06:30:31.211Z,-430.44
2019-02-11T06:31:31.451Z,-428.17
2019-02-11T06:32:31.647Z,-428.99
2019-02-11T06:33:31.877Z,-427.72
2019-02-11T06:34:33.824Z,-428.68
2019-02-11T06:35:32.325Z,-430.68
2019-02-11T06:36:32.686Z,-427.77
2019-02-11T06:37:32.808Z,-432.49
2019-02-11T06:38:32.991Z,-432.36
2019-02-11T06:39:33.229Z,-431.00
2019-02-11T06:40:33.418Z,-428.24
2019-02-11T06:41:33.879Z,-432.50
2019-02-11T06:42:33.900Z,-427.84
2019-02-11T06:43:34.092Z,-430.10
2019-02-11T06:44:34.459Z,-430.02
2019-02-11T06:45:34.514Z,-429.00
2019-02-11T06:46:34.755Z,-425.57
2019-02-11T06:47:35.245Z,-424.93
2019-02-11T06:48:35.216Z,-426.35
2019-02-11T06:49:42.035Z,-424.72
2019-02-11T06:50:35.662Z,-425.04
2019-02-11T06:51:35.890Z,-420.64
2019-02-11T06:52:40.689Z,-423.46
2019-02-11T06:53:36.323Z,-424.14
2019-02-11T06:54:40.600Z,-428.04
2019-02-11T06:55:36.760Z,-424.91
2019-02-11T06:56:41.630Z,-424.83
2019-02-11T06:57:37.203Z,-426.29
2019-02-11T06:58:37.430Z,-426.84
2019-02-11T06:59:37.717Z,-421.46
2019-02-11T07:00:37.906Z,-423.24
2019-02-11T07:01:38.095Z,-422.47
2019-02-11T07:02:38.301Z,-421.06
2019-02-11T07:03:38.526Z,-418.83
2019-02-11T07:04:38.797Z,-425.09
2019-02-11T07:05:38.952Z,-425.18
2019-02-11T07:06:39.211Z,-427.03
2019-02-11T07:07:39.406Z,-422.05
2019-02-11T07:08:39.670Z,-419.44
2019-02-11T07:09:39.885Z,-420.05
2019-02-11T07:10:40.063Z,-417.77
2019-02-11T07:11:40.314Z,-419.01
2019-02-11T07:12:40.533Z,-420.24
2019-02-11T07:13:40.754Z,-417.98
2019-02-11T07:14:41.040Z,-416.16
2019-02-11T07:15:41.198Z,-419.83
2019-02-11T07:16:41.438Z,-414.01
2019-02-11T07:17:41.769Z,-419.49
2019-02-11T07:18:41.874Z,-417.16
2019-02-11T07:19:42.145Z,-419.51
2019-02-11T07:20:42.314Z,-418.62
2019-02-11T07:21:42.540Z,-419.82
2019-02-11T07:22:42.746Z,-416.91
2019-02-11T07:23:42.982Z,-418.67
2019-02-11T07:24:43.240Z,-417.37
2019-02-11T07:25:43.657Z,-418.66
2019-02-11T07:26:43.631Z,-420.80
2019-02-11T07:27:43.907Z,-419.64
2019-02-11T07:28:44.133Z,-420.68
2019-02-11T07:29:44.343Z,-420.93
2019-02-11T07:30:44.559Z,-417.79
2019-02-11T07:31:44.781Z,-418.37
2019-02-11T07:32:45.003Z,-419.84
2019-02-11T07:33:45.308Z,-420.53
2019-02-11T07:34:45.493Z,-418.28
2019-02-11T07:35:45.675Z,-417.90
2019-02-11T07:36:45.906Z,-414.95
2019-02-11T07:37:46.141Z,-417.98
2019-02-11T07:38:46.342Z,-420.83
2019-02-11T07:39:46.612Z,-417.35
2019-02-11T07:40:46.830Z,-422.03
2019-02-11T07:41:47.066Z,-426.66
2019-02-11T07:42:47.248Z,-428.21
2019-02-11T07:43:47.450Z,-422.48
2019-02-11T07:44:47.682Z,-428.91
2019-02-11T07:45:47.902Z,-424.32
2019-02-11T07:46:48.126Z,-427.69
2019-02-11T07:47:48.370Z,-430.67
2019-02-11T07:48:48.602Z,-425.74
2019-02-11T07:49:48.834Z,-428.53
2019-02-11T07:50:49.066Z,-428.61
2019-02-11T07:51:49.241Z,-420.21
2019-02-11T07:52:49.480Z,-423.43
2019-02-11T07:53:49.690Z,-420.76
2019-02-11T07:54:49.916Z,-422.39
2019-02-11T07:55:50.128Z,-422.14
2019-02-11T07:56:50.351Z,-418.56
2019-02-11T07:57:50.618Z,-421.85
2019-02-11T07:58:50.936Z,-419.96
2019-02-11T07:59:51.054Z,-420.05
2019-02-11T08:00:51.248Z,-430.82
2019-02-11T08:01:51.483Z,-424.37
2019-02-11T08:02:51.718Z,-424.23
2019-02-11T08:03:51.953Z,-430.93
2019-02-11T08:04:52.167Z,-433.80
2019-02-11T08:05:52.389Z,-431.81
2019-02-11T08:06:52.694Z,-430.38
2019-02-11T08:07:52.843Z,-431.57
2019-02-11T08:08:53.045Z,-428.89
2019-02-11T08:09:53.272Z,-428.00
2019-02-11T08:10:53.477Z,-428.41
2019-02-11T08:11:53.676Z,-426.00
2019-02-11T08:12:53.943Z,-424.80
2019-02-11T08:13:54.158Z,-425.17
2019-02-11T08:14:54.420Z,-422.30
2019-02-11T08:15:54.576Z,-421.58
2019-02-11T08:16:54.800Z,-420.76
2019-02-11T08:17:55.024Z,-417.07
2019-02-11T08:18:55.275Z,-420.24
2019-02-11T08:19:55.804Z,-420.34
2019-02-11T08:20:55.766Z,-420.08
2019-02-11T08:21:55.906Z,-421.93
2019-02-11T08:22:56.175Z,-420.57
2019-02-11T08:23:56.378Z,-420.83
2019-02-11T08:24:56.618Z,-420.26
2019-02-11T08:25:56.857Z,-417.58
2019-02-11T08:26:57.056Z,-415.18
2019-02-11T08:27:57.291Z,-416.09
2019-02-11T08:28:57.507Z,-420.25
2019-02-11T08:29:57.688Z,-418.31
2019-02-11T08:30:57.970Z,-417.68
2019-02-11T08:31:58.264Z,-418.01
2019-02-11T08:32:58.407Z,-413.85
2019-02-11T08:33:58.599Z,-418.52
2019-02-11T08:34:58.821Z,-413.87
2019-02-11T08:35:59.084Z,-420.94
2019-02-11T08:36:59.307Z,-417.83
2019-02-11T08:37:59.547Z,-413.80
2019-02-11T08:38:59.763Z,-412.07
2019-02-11T08:40:00.071Z,-418.15
2019-02-11T08:41:00.204Z,-415.75
2019-02-11T08:42:00.423Z,-412.37
2019-02-11T08:43:01.341Z,-414.67
2019-02-11T08:44:00.890Z,-415.52
2019-02-11T08:45:01.087Z,-414.21
2019-02-11T08:46:01.340Z,-417.45
2019-02-11T08:47:01.539Z,-412.80
2019-02-11T08:48:01.840Z,-415.42
2019-02-11T08:49:01.993Z,-422.47
2019-02-11T08:50:02.185Z,-419.98
2019-02-11T08:51:02.421Z,-423.46
2019-02-11T08:52:02.642Z,-424.59
2019-02-11T08:53:02.876Z,-423.98
2019-02-11T08:54:03.092Z,-421.09
2019-02-11T08:55:03.313Z,-422.19
2019-02-11T08:56:03.640Z,-420.78
2019-02-11T08:57:03.717Z,-420.33
2019-02-11T08:58:03.972Z,-420.15
2019-02-11T08:59:04.196Z,-422.38
2019-02-11T09:00:04.408Z,-426.09
2019-02-11T09:01:04.651Z,-422.66
2019-02-11T09:02:04.856Z,-421.95
2019-02-11T09:03:05.086Z,-421.46
2019-02-11T09:04:05.370Z,-419.97
2019-02-11T09:05:05.597Z,-421.09
2019-02-11T09:06:05.786Z,-420.27
2019-02-11T09:07:05.980Z,-423.06
2019-02-11T09:08:06.210Z,-424.59
2019-02-11T09:09:06.452Z,-425.71
2019-02-11T09:10:06.655Z,-423.89
2019-02-11T09:11:06.891Z,-423.96
2019-02-11T09:12:07.098Z,-427.99
2019-02-11T09:13:07.408Z,-424.59
2019-02-11T09:14:07.568Z,-427.50
2019-02-11T09:15:07.767Z,-424.92
2019-02-11T09:16:07.996Z,-426.13
2019-02-11T09:17:10.350Z,-424.17
2019-02-11T09:18:08.446Z,-426.01
2019-02-11T09:19:08.649Z,-427.03
2019-02-11T09:20:08.878Z,-424.56
2019-02-11T09:21:09.206Z,-427.84
2019-02-11T09:22:09.309Z,-424.77
2019-02-11T09:23:09.551Z,-431.33
2019-02-11T09:24:09.738Z,-426.89
2019-02-11T09:25:09.972Z,-423.26
2019-02-11T09:26:10.219Z,-428.68
2019-02-11T09:27:10.419Z,-438.27
2019-02-11T09:28:10.659Z,-434.58
2019-02-11T09:29:10.943Z,-466.04
2019-02-11T09:30:11.054Z,-459.01
2019-02-11T09:31:11.311Z,-463.37
2019-02-11T09:32:11.524Z,-462.09
2019-02-11T09:33:11.758Z,-468.52
2019-02-11T09:34:11.969Z,-467.96
2019-02-11T09:35:12.212Z,-463.57
2019-02-11T09:36:12.406Z,-467.27
2019-02-11T09:37:12.678Z,-462.23
2019-02-11T09:38:12.883Z,-463.57
2019-02-11T09:39:13.076Z,-466.95
2019-02-11T09:40:13.310Z,-465.02
2019-02-11T09:41:13.541Z,-464.89
2019-02-11T09:42:13.737Z,-463.47
2019-02-11T09:43:13.989Z,-464.09
2019-02-11T09:44:14.222Z,-466.56
2019-02-11T09:45:14.484Z,-466.30
2019-02-11T09:46:14.740Z,-466.83
2019-02-11T09:47:14.886Z,-467.53
2019-02-11T09:48:15.117Z,-464.37
2019-02-11T09:49:15.351Z,-463.15
2019-02-11T09:50:15.580Z,-463.26
2019-02-11T09:51:15.809Z,-459.05
2019-02-11T09:52:15.984Z,-458.00
2019-02-11T09:53:16.212Z,-462.83
2019-02-11T09:54:16.597Z,-467.51
2019-02-11T09:55:16.715Z,-462.67
2019-02-11T09:56:16.952Z,-463.48
2019-02-11T09:57:17.143Z,-461.26
2019-02-11T09:58:17.600Z,-465.28
2019-02-11T09:59:17.622Z,-465.48
2019-02-11T10:00:18.035Z,-464.97
2019-02-11T10:01:18.063Z,-465.58
2019-02-11T10:02:18.353Z,-464.58
2019-02-11T10:03:18.455Z,-468.08
2019-02-11T10:04:18.722Z,-465.62
2019-02-11T10:05:18.951Z,-463.91
2019-02-11T10:06:19.174Z,-464.27
2019-02-11T10:07:19.370Z,-439.95
2019-02-11T10:08:19.595Z,-433.06
2019-02-11T10:09:19.817Z,-428.26
2019-02-11T10:10:20.107Z,-436.81
2019-02-11T10:11:20.253Z,-434.62
2019-02-11T10:12:21.378Z,-451.05
2019-02-11T10:13:20.689Z,-444.24
2019-02-11T10:14:20.921Z,-461.62
2019-02-11T10:15:21.152Z,-458.28
2019-02-11T10:16:22.251Z,-450.59
2019-02-11T10:17:29.435Z,-456.53
2019-02-11T10:18:22.845Z,-458.99
2019-02-11T10:19:22.132Z,-460.58
2019-02-11T10:20:22.293Z,-460.89
2019-02-11T10:21:22.507Z,-465.54
2019-02-11T10:22:22.728Z,-467.28
2019-02-11T10:23:22.950Z,-468.34
2019-02-11T10:24:23.183Z,-469.45
2019-02-11T10:25:24.159Z,-467.73
2019-02-11T10:26:23.630Z,-471.61
2019-02-11T10:27:23.966Z,-464.62
2019-02-11T10:28:24.062Z,-466.18
2019-02-11T10:29:24.301Z,-455.91
2019-02-11T10:30:24.509Z,-464.54
2019-02-11T10:31:24.740Z,-435.44
2019-02-11T10:32:24.945Z,-442.57
2019-02-11T10:33:25.174Z,-440.86
2019-02-11T10:34:25.420Z,-435.47
2019-02-11T10:35:25.713Z,-441.43
2019-02-11T10:36:25.936Z,-445.83
2019-02-11T10:37:26.073Z,-439.08
2019-02-11T10:38:27.604Z,-441.25
2019-02-11T10:39:26.536Z,-441.57
2019-02-11T10:40:26.748Z,-438.32
2019-02-11T10:41:26.985Z,-437.09
2019-02-11T10:42:27.168Z,-435.42
2019-02-11T10:43:27.488Z,-437.93
2019-02-11T10:44:27.629Z,-431.73
2019-02-11T10:45:36.245Z,-429.06
2019-02-11T10:46:29.062Z,-427.02
2019-02-11T10:47:28.310Z,-432.18
2019-02-11T10:48:28.508Z,-434.34
2019-02-11T10:49:28.760Z,-436.63
2019-02-11T10:50:29.024Z,-427.49
2019-02-11T10:51:29.219Z,-429.69
2019-02-11T10:52:29.443Z,-439.42
2019-02-11T10:53:29.642Z,-462.39
2019-02-11T10:54:29.896Z,-466.41
2019-02-11T10:55:30.110Z,-460.61
2019-02-11T10:56:30.315Z,-460.65
2019-02-11T10:57:30.570Z,-462.08
2019-02-11T10:58:30.769Z,-469.16
2019-02-11T10:59:31.013Z,-462.77
2019-02-11T11:00:31.343Z,-466.08
2019-02-11T11:01:31.435Z,-461.57
2019-02-11T11:02:31.675Z,-459.29
2019-02-11T11:03:31.880Z,-460.07
2019-02-11T11:04:32.103Z,-455.03
2019-02-11T11:05:32.348Z,-467.77
2019-02-11T11:06:32.565Z,-467.09
2019-02-11T11:07:32.798Z,-464.71
2019-02-11T11:08:33.148Z,-465.56
2019-02-11T11:09:33.228Z,-462.44
2019-02-11T11:10:33.466Z,-457.73
2019-02-11T11:11:33.674Z,-461.98
2019-02-11T11:12:33.915Z,-465.70
2019-02-11T11:13:34.119Z,-460.30
2019-02-11T11:14:34.362Z,-462.91
2019-02-11T11:15:34.562Z,-455.79
2019-02-11T11:16:34.830Z,-454.47
2019-02-11T11:17:35.031Z,-461.31
2019-02-11T11:18:35.238Z,-459.33
2019-02-11T11:19:35.481Z,-461.53
2019-02-11T11:20:35.695Z,-464.76
2019-02-11T11:21:35.892Z,-466.90
2019-02-11T11:22:36.148Z,-466.19
2019-02-11T11:23:36.357Z,-465.18
2019-02-11T11:24:36.671Z,-462.08
2019-02-11T11:25:36.781Z,-456.90
2019-02-11T11:26:36.990Z,-456.28
2019-02-11T11:27:37.247Z,-457.64
2019-02-11T11:28:37.475Z,-456.64
2019-02-11T11:29:37.720Z,-457.94
2019-02-11T11:30:37.927Z,-458.35
2019-02-11T11:31:38.147Z,-456.85
2019-02-11T11:32:38.397Z,-457.40
2019-02-11T11:33:38.676Z,-459.27
2019-02-11T11:34:39.064Z,-459.96
2019-02-11T11:35:39.061Z,-456.96
2019-02-11T11:36:39.260Z,-459.36
2019-02-11T11:37:39.500Z,-458.14
2019-02-11T11:38:39.688Z,-458.07
2019-02-11T11:39:39.947Z,-456.01
2019-02-11T11:40:40.171Z,-460.87
2019-02-11T11:41:40.508Z,-458.52
2019-02-11T11:42:40.611Z,-458.90
2019-02-11T11:43:40.806Z,-459.08
2019-02-11T11:44:41.030Z,-456.54
2019-02-11T11:45:41.273Z,-457.06
2019-02-11T11:46:46.900Z,-455.77
2019-02-11T11:47:42.733Z,-463.17
2019-02-11T11:48:41.937Z,-458.92
2019-02-11T11:49:42.195Z,-455.61
2019-02-11T11:50:42.415Z,-459.44
2019-02-11T11:51:42.613Z,-455.07
2019-02-11T11:52:42.853Z,-458.80
2019-02-11T11:53:43.057Z,-456.97
2019-02-11T11:54:43.259Z,-460.19
2019-02-11T11:55:43.536Z,-459.60
2019-02-11T11:56:43.766Z,-458.21
2019-02-11T11:57:44.070Z,-454.64
2019-02-11T11:58:44.193Z,-426.79
2019-02-11T11:59:44.418Z,-455.35
2019-02-11T12:00:44.669Z,-456.82
2019-02-11T12:01:44.865Z,-456.06
2019-02-11T12:03:00.343Z,-454.68
2019-02-11T12:03:46.300Z,-451.52
2019-02-11T12:04:45.523Z,-457.31
2019-02-11T12:05:45.804Z,-454.40
2019-02-11T12:06:45.969Z,-460.35
2019-02-11T12:07:46.234Z,-453.40